Allouez, MI

1:30 PM EDT on October 02, 2014 (GMT -0400)
Houghton County Memorial | Change Station
CLOSE
Current Station
Airport
Location: Houghton,
Elevation: 329 m
Nearby Weather Stations

Elev 329 m 47.17 °N, 88.49 °W | Updated 37 minutes ago

Overcast
Overcast
14 °C
Feels Like 14 °C
N
0
Wind Variable Wind from North

Today
High -- | Low -- °C
--% Chance of Precip.
Yesterday
High -- | Low -- °C
Precip. -- mm
7:53 AM 7:31 PM
First Quarter, 60% visible
Pressure 1010 hPa
Visibility 11.3 kilometers
Clouds Mostly Cloudy 182 m
Overcast 365 m
Dew Point 12 °C
Humidity 84%
Rainfall 0.0 mm
Snow Depth Not available.
UV 1 out of 12
Pollen .70 out of 12
Air Quality Not available.
Flu Activity Not available.
METAR KCMX 021653Z AUTO 00000KT 7SM BKN006 OVC012 14/12 A2982 RMK AO2 CIG 005V011 SLP100 T01440117

More Conditions Fewer Conditions

Pressure 1010 hPa
Visibility 11.3 kilometers
Clouds Mostly Cloudy 182 m
Overcast 365 m
Dew Point 12 °C
Humidity 84%
Rainfall 0.0 mm
Snow Depth Not available.
UV 1 out of 12
Pollen .70 out of 12
Air Quality Not available.
Flu Activity Not available.
METAR KCMX 021653Z AUTO 00000KT 7SM BKN006 OVC012 14/12 A2982 RMK AO2 CIG 005V011 SLP100 T01440117

More Conditions Fewer Conditions

10-Day Weather Forecast

Almanac

Astronomy

Oct. 02, 2014 Rise Set
Actual Time 7:53 AM EDT 7:31 PM EDT
Civil Twilight 7:23 AM EDT 8:01 PM EDT
Nautical Twilight 6:47 AM EDT 8:37 PM EDT
Astronomical Twilight 6:11 AM EDT 9:13 PM EDT
Moon 3:58 PM EDT 12:48 AM EDT
Length of Visible Light 12h 38m
Length of Day
11h 37m
Tomorrow will be 3m 21s shorter.
First Quarter, 60% of the Moon is Illuminated
Today
First Quarter
Oct 8
Full
Oct 15
Last Quarter
Oct 23
New
Oct 30
First Quarter

Today's Extremes

State Highs State Lows

Community

WunderPhotos

Upload Photos

1,758,305 photos uploaded!

Nearby

Snow Depth

Station Depth Elevation
No new snow has been reported.

Earthquake Activity

City Distance Mag. Time & Date
No recent earthquake activity has been reported nearby.
Minimum magnitude displayed is 2.5.

Coastal Water Temperatures

Place Temperature
No Stations Reporting

Nearby Weather Stations